Tiempo atmosférico en la estación meteorológica de Cabo Peñas, Asturias (100 m.)



Fecha
DESCASC
Temp. máxima en grados centígrados (hora)
DESCASC
Temp. mínima en grados centígrados (hora)
DESCASC
Temp. media en grados centígrados
DESCASC
Racha de viento máxima en m/sg (hora)
DESCASC
Velocidad máxima media en intervalos de 10 minutos(hora)
DESCASC
Precipitaciones diarias en mm
DESCASC
Precipitaciones de 00:00 a 06:00 en mm
DESCASC
Precipitaciones de 06:00 a 12:00 en mm
DESCASC
Precipitaciones de 12:00 a 18:00 en mm
DESCASC
Precipitaciones de 18:00 a 24:00 en mm
DESCASC
18-04-2019 -- (--) -- (--) -- 11.94 (02:00) 7.78 (00:10) 4.2 0 0 0.1 4.1
17-04-2019 -- (--) -- (--) -- 13.33 (22:40) 8.61 (23:10) 0 0 0 0 0
16-04-2019 -- (--) -- (--) -- 11.67 (20:10) 8.61 (20:50) 0 0 0 0 0
15-04-2019 -- (--) -- (--) -- 18.33 (18:00) 11.11 (18:00) 4.3 0 1.7 2.5 0.1
14-04-2019 -- (--) -- (--) -- 11.94 (23:59) 8.61 (23:59) 0 0 0 0 0
13-04-2019 -- (--) -- (--) -- 7.78 (00:10) 5.83 (00:10) 0 0 0 0 0
12-04-2019 -- (--) -- (--) -- 11.11 (20:00) 8.33 (20:20) 0 0 0 0 0
11-04-2019 -- (--) -- (--) -- 9.44 (13:20) 5 (15:50) 1.7 0 0 1.7 0
10-04-2019 -- (--) -- (--) -- 20.83 (04:30) 10.83 (09:30) 7.8 4.9 2.9 0 0
09-04-2019 -- (--) -- (--) -- 15 (21:20) 8.06 (21:20) 1.1 0.2 0.6 0 0.3
08-04-2019 -- (--) -- (--) -- 16.11 (19:30) 10.28 (21:40) 2 1.4 0.1 0 0.5
07-04-2019 -- (--) -- (--) -- 15.28 (02:30) 7.78 (03:30) 13 12.1 0.3 0 0.6
06-04-2019 -- (--) -- (--) -- 15 (18:10) 8.61 (18:00) 9.8 0 0 0.8 9
05-04-2019 -- (--) -- (--) -- 23.06 (19:30) 8.61 (19:20) 2 1.9 0 0.1 0
04-04-2019 -- (--) -- (--) -- 18.89 (01:20) 9.44 (00:30) 3.6 0.7 0.4 0.9 1.6
03-04-2019 -- (--) -- (--) -- 27.22 (22:40) 14.44 (13:20) 8.6 2.4 2.9 2 1.3
02-04-2019 -- (--) -- (--) -- 12.5 (17:30) 7.5 (17:20) 0 0 0 0 0
01-04-2019 -- (--) -- (--) -- 7.78 (02:30) 5.56 (02:10) 0 0 0 0 0
31-03-2019 -- (--) -- (--) -- 10 (05:00) 7.5 (04:50) 0 0 0 0 0
30-03-2019 -- (--) -- (--) -- 7.78 (23:40) 5.83 (19:00) 0 0 0 0 0
29-03-2019 -- (--) -- (--) -- -- (--) -- (--) -- -- -- 0 0
28-03-2019 -- (--) -- (--) -- -- (--) -- (--) -- 0 -- -- --
27-03-2019 -- (--) -- (--) -- 16.67 (00:50) 11.39 (00:40) 0 0 0 0 0
26-03-2019 -- (--) -- (--) -- 23.89 (15:30) 13.33 (19:00) 0 0 0 0 0
25-03-2019 -- (--) -- (--) -- 15.83 (13:30) 8.89 (13:30) 0 0 0 0 0
24-03-2019 -- (--) -- (--) -- 11.94 (23:50) 6.39 (23:50) 0 0 0 0 0
23-03-2019 -- (--) -- (--) -- 9.72 (15:50) 7.22 (15:50) 0 0 0 0 0
22-03-2019 -- (--) -- (--) -- 8.33 (00:10) 6.11 (00:10) 0 0 0 0 0
21-03-2019 -- (--) -- (--) -- 14.17 (00:20) 8.89 (00:40) 0 0 0 0 0

Gráficas

Temp. máximas Temp. mínimas Temp. medias Precipitaciones Rachas de viento máximas Velocidades máximas media en intervalos de 10 minutos

Datos horarios

Fecha y hora oficial Temperatura (ºC) Velocidad del viento (km/h) Dirección del viento Racha (km/h) Dirección de racha Precipitación (mm) Presión (hPa) Tendencia (hPa) Humedad (%)
2019-04-19 23:00:00 -- 15 Sudeste 19 Sudeste 0 -- -- 87
2019-04-19 22:00:00 -- 11 Este 32 Este 0 -- -- 87
2019-04-19 21:00:00 -- 12 Este 25 Este 0 -- -- 84
2019-04-19 20:00:00 -- 14 Este 29 Este 0 -- -- 86
2019-04-19 19:00:00 -- 19 Este 31 Este 0 -- -- 84
2019-04-19 18:00:00 -- 14 Este 32 Este 0 -- -- 87
2019-04-19 17:00:00 -- 13 Este 27 Sudeste 0 -- -- 87
2019-04-19 16:00:00 -- 11 Este 32 Este 0 -- -- 90
2019-04-19 15:00:00 -- 19 Este 44 Este 0 -- -- 88
2019-04-19 14:00:00 -- 17 Este 30 Este 0 -- -- 91
2019-04-19 13:00:00 -- 21 Este 32 Este 0 -- -- 94
2019-04-19 12:00:00 -- 21 Este 36 Este 0 -- -- 94
2019-04-19 11:00:00 -- 21 Este 35 Este 0 -- -- 94
2019-04-19 10:00:00 -- 18 Sudeste 31 Este 0.2 -- -- 94
2019-04-19 09:00:00 -- 12 Este 36 Sudeste 0 -- -- 94
2019-04-19 08:00:00 -- 10 Este 30 Este 0 -- -- 94
2019-04-19 07:00:00 -- 9 Este 30 Este 0.1 -- -- 94
2019-04-19 06:00:00 -- 5 Sudeste 21 Este 0 -- -- 94
2019-04-19 05:00:00 -- 10 Este 28 Nordeste 0.1 -- -- 94
2019-04-19 04:00:00 -- 8 Este 19 Sudeste 0.2 -- -- 94
2019-04-19 03:00:00 -- 6 Este 21 Este 0.1 -- -- 94
2019-04-19 02:00:00 -- 7 Este 22 Sudeste 0.1 -- -- 94
2019-04-19 01:00:00 -- 10 Sudeste 23 Este 0.1 -- -- 94
2019-04-19 00:00:00 -- 11 Sudeste 22 Este 0.2 -- -- 94
2019-04-18 23:00:00 -- 10 Este 21 Este 0.8 -- -- 94
2019-04-18 22:00:00 -- 4 Este 22 Este 0.8 -- -- 94
2019-04-18 21:00:00 -- 13 Este 21 Este 1.3 -- -- 94
2019-04-18 20:00:00 -- 9 Este 14 Este 0.4 -- -- 94
2019-04-18 19:00:00 -- 13 Este 21 Este 0.6 -- -- 94
2019-04-18 18:00:00 -- 17 Este 31 Este 0.1 -- -- 92
2019-04-18 17:00:00 -- 21 Este 36 Este 0 -- -- 91
2019-04-18 16:00:00 -- 18 Este 31 Este 0 -- -- 91
2019-04-18 15:00:00 -- 11 Este 21 Este 0 -- -- 91
2019-04-18 14:00:00 -- 11 Este 16 Sudeste 0 -- -- 91
2019-04-18 13:00:00 -- 12 Este 18 Este 0 -- -- 91
2019-04-18 12:00:00 -- 13 Este 18 Este 0 -- -- 90
2019-04-18 11:00:00 -- 5 Sudeste 9 Este 0 -- -- 91
2019-04-18 10:00:00 -- 4 Sudeste 8 Sudeste 0 -- -- 92
2019-04-18 09:00:00 -- 5 Sudeste 10 Sudeste 0 -- -- 92
2019-04-18 08:00:00 -- 3 Sudoeste 8 Norte 0 -- -- 92
2019-04-18 07:00:00 -- 7 Oeste 16 Oeste 0 -- -- 92
2019-04-18 06:00:00 -- 8 Oeste 18 Oeste 0 -- -- 91
2019-04-18 05:00:00 -- 13 Oeste 32 Oeste 0 -- -- 90
2019-04-18 04:00:00 -- 22 Oeste 38 Oeste 0 -- -- 90
2019-04-18 03:00:00 -- 23 Oeste 41 Oeste 0 -- -- 92
2019-04-18 02:00:00 -- 27 Oeste 43 Oeste 0 -- -- 92
2019-04-18 01:00:00 -- 27 Oeste 40 Oeste 0 -- -- 87
2019-04-18 00:00:00 -- 27 Oeste 43 Oeste 0 -- -- 84
2019-04-17 23:00:00 -- 29 Oeste 48 Oeste 0 -- -- 83
2019-04-17 22:00:00 -- 28 Oeste 42 Oeste 0 -- -- 84
2019-04-17 21:00:00 -- 23 Oeste 33 Oeste 0 -- -- 88
2019-04-17 20:00:00 -- 23 Oeste 47 Oeste 0 -- -- 87
2019-04-17 19:00:00 -- 28 Oeste 44 Oeste 0 -- -- 84
2019-04-17 18:00:00 -- 17 Oeste 22 Oeste 0 -- -- 83
2019-04-17 17:00:00 -- 6 Oeste 16 Sudoeste 0 -- -- 79
2019-04-17 16:00:00 -- 6 Noroeste 17 Oeste 0 -- -- 81
2019-04-17 15:00:00 -- 11 Oeste 26 Oeste 0 -- -- 76
2019-04-17 14:00:00 -- 4 Este 8 Este 0 -- -- 45
2019-04-17 13:00:00 -- 5 Este 14 Este 0 -- -- 45
2019-04-17 12:00:00 -- 10 Sudeste 16 Sudeste 0 -- -- 58
2019-04-17 11:00:00 -- 6 Sudeste 23 Sudeste 0 -- -- 52
2019-04-17 10:00:00 -- 6 Sudeste 20 Sudeste 0 -- -- 61
2019-04-17 09:00:00 -- 8 Sur 20 Sur 0 -- -- 76
2019-04-17 08:00:00 -- 6 Sudeste 17 Sudeste 0 -- -- 92
2019-04-17 07:00:00 -- 12 Sudeste 19 Sudeste 0 -- -- 94
2019-04-17 06:00:00 -- 12 Sudeste 20 Este 0 -- -- 94
2019-04-17 05:00:00 -- 14 Este 23 Este 0 -- -- 94
2019-04-17 04:00:00 -- 12 Este 22 Este 0 -- -- 94
2019-04-17 03:00:00 -- 15 Este 26 Este 0 -- -- 94
2019-04-17 02:00:00 -- 20 Este 36 Sudeste 0 -- -- 94
2019-04-17 01:00:00 -- 28 Este 37 Este 0 -- -- 94
2019-04-17 00:00:00 -- 26 Este 37 Este 0 -- -- 92
2019-04-16 23:00:00 -- 26 Este 38 Este 0 -- -- 92
2019-04-16 22:00:00 -- 28 Este 40 Este 0 -- -- 92
2019-04-16 21:00:00 -- 30 Este 42 Este 0 -- -- 91
2019-04-16 20:00:00 -- 30 Este 41 Este 0 -- -- 91
2019-04-16 19:00:00 -- 29 Este 42 Este 0 -- -- 90
2019-04-16 18:00:00 -- 26 Este 36 Este 0 -- -- 87
2019-04-16 17:00:00 -- 24 Este 37 Este 0 -- -- 85
2019-04-16 16:00:00 -- 25 Este 39 Este 0 -- -- 86
2019-04-16 15:00:00 -- 26 Este 37 Este 0 -- -- 85
2019-04-16 14:00:00 -- 23 Este 32 Este 0 -- -- 83
2019-04-16 13:00:00 -- 21 Este 30 Este 0 -- -- 85
2019-04-16 12:00:00 -- 19 Este 29 Este 0 -- -- 85
2019-04-16 11:00:00 -- 17 Este 25 Sudeste 0 -- -- 83
2019-04-16 10:00:00 -- 17 Sudeste 25 Sudeste 0 -- -- 81
2019-04-16 09:00:00 -- 6 Sudeste 17 Sudeste 0 -- -- 87
2019-04-16 08:00:00 -- 4 Sudeste 16 Sudeste 0 -- -- 87
2019-04-16 07:00:00 -- 4 Sudeste 13 Sudeste 0 -- -- 86
2019-04-16 06:00:00 -- 6 Sur 13 Sur 0 -- -- 87
2019-04-16 05:00:00 -- 4 Sur 15 Sudeste 0 -- -- 87
2019-04-16 04:00:00 -- 5 Sur 13 Sudoeste 0 -- -- 90
2019-04-16 03:00:00 -- 4 Sur 13 Sur 0 -- -- 90
2019-04-16 02:00:00 -- 6 Sur 14 Sur 0 -- -- 91
2019-04-16 01:00:00 -- 9 Sudoeste 15 Oeste 0 -- -- 91
2019-04-16 00:00:00 -- 12 Oeste 31 Noroeste 0 -- -- 90
2019-04-15 23:00:00 -- 20 Noroeste 40 Noroeste 0 -- -- 89
2019-04-15 22:00:00 -- 26 Noroeste 45 Noroeste 0 -- -- 89
2019-04-15 21:00:00 -- 27 Noroeste 54 Noroeste 0 -- -- 90
2019-04-15 20:00:00 -- 26 Noroeste 61 Norte 0.1 -- -- 90
2019-04-15 19:00:00 -- 28 Noroeste 60 Noroeste 0 -- -- 91
2019-04-15 18:00:00 -- 40 Noroeste 66 Noroeste 0 -- -- 90
2019-04-15 17:00:00 -- 31 Noroeste 62 Noroeste 0.6 -- -- 92
2019-04-15 16:00:00 -- 26 Noroeste 64 Norte 0.4 -- -- 87
2019-04-15 15:00:00 -- 24 Noroeste 50 Noroeste 0 -- -- 87
2019-04-15 14:00:00 -- 24 Noroeste 47 Noroeste 0 -- -- 91
2019-04-15 13:00:00 -- 16 Noroeste 27 Noroeste 1.5 -- -- 92
2019-04-15 12:00:00 -- 13 Noroeste 42 Noroeste 1.7 -- -- 92
2019-04-15 11:00:00 -- 23 Noroeste 54 Sudoeste 0 -- -- 89
2019-04-15 10:00:00 -- 16 Sudeste 26 Sudeste 0 -- -- 90
2019-04-15 09:00:00 -- 14 Sudeste 23 Sudeste 0 -- -- 92
2019-04-15 08:00:00 -- 17 Sudeste 22 Sudeste 0 -- -- 94
2019-04-15 07:00:00 -- 14 Sudeste 18 Sudeste 0 -- -- 94
2019-04-15 06:00:00 -- 14 Sudeste 21 Sudeste 0 -- -- 95
2019-04-15 05:00:00 -- 17 Sudeste 24 Este 0 -- -- 94
2019-04-15 04:00:00 -- 18 Este 26 Este 0 -- -- 94
2019-04-15 03:00:00 -- 15 Sudeste 28 Sudeste 0 -- -- 92
2019-04-15 02:00:00 -- 23 Sudeste 41 Sudeste 0 -- -- 92
2019-04-15 01:00:00 -- 29 Sudeste 46 Sudeste 0 -- -- 92
2019-04-15 00:00:00 -- 31 Sudeste 43 Sudeste 0 -- -- 92
2019-04-14 23:00:00 -- 29 Sudeste 39 Sudeste 0 -- -- 92
2019-04-14 22:00:00 -- 25 Sudeste 36 Sudeste 0 -- -- 92
2019-04-14 21:00:00 -- 24 Sudeste 31 Sudeste 0 -- -- 90
2019-04-14 20:00:00 -- 22 Sudeste 33 Sudeste 0 -- -- 88
2019-04-14 19:00:00 -- 23 Sudeste 32 Sudeste 0 -- -- 84
2019-04-14 18:00:00 -- 21 Sudeste 27 Sudeste 0 -- -- 86
2019-04-14 17:00:00 -- 18 Sudeste 27 Sudeste 0 -- -- 85
2019-04-14 16:00:00 -- 17 Sudeste 28 Sudeste 0 -- -- 73
2019-04-14 15:00:00 -- 19 Este 25 Sudeste 0 -- -- 73
2019-04-14 14:00:00 -- 8 Este 11 Este 0 -- -- 76
2019-04-14 13:00:00 -- 9 Este 12 Este 0 -- -- 81
2019-04-14 12:00:00 -- 3 Este 9 Este 0 -- -- 72
2019-04-14 11:00:00 -- 3 Nordeste 5 Nordeste 0 -- -- 71
2019-04-14 10:00:00 -- 3 Sur 11 Sur 0 -- -- 76
2019-04-14 09:00:00 -- 5 Sur 11 Sudoeste 0 -- -- 76
2019-04-14 08:00:00 -- 9 Sudoeste 11 Sur 0 -- -- 75
2019-04-14 07:00:00 -- 4 Sudeste 12 Sudeste 0 -- -- 75
2019-04-14 06:00:00 -- 6 Sudeste 14 Sudeste 0 -- -- 83
2019-04-14 05:00:00 -- 5 Sudeste 8 Sudeste 0 -- -- 86
2019-04-14 04:00:00 -- 6 Sudeste 10 Sudeste 0 -- -- 92
2019-04-14 03:00:00 -- 8 Sudeste 9 Sudeste 0 -- -- 92
2019-04-14 02:00:00 -- 5 Oeste 8 Oeste 0 -- -- 91
2019-04-14 01:00:00 -- 2 Sudeste 12 Sudeste 0 -- -- 92
2019-04-14 00:00:00 -- 9 Sudeste 10 Sudeste 0 -- -- 92
2019-04-13 23:00:00 -- 7 Sudeste 18 Sudeste 0 -- -- 92
2019-04-13 22:00:00 -- 15 Sudeste 23 Sudeste 0 -- -- 91
2019-04-13 21:00:00 -- 16 Sudeste 25 Sudeste 0 -- -- 90
2019-04-13 20:00:00 -- 19 Este 28 Sudeste 0 -- -- 88
2019-04-13 19:00:00 -- 19 Sudeste 26 Sudeste 0 -- -- 76
2019-04-13 18:00:00 -- 19 Sudeste 24 Sudeste 0 -- -- 86
2019-04-13 17:00:00 -- 18 Sudeste 24 Sudeste 0 -- -- 87
2019-04-13 16:00:00 -- 17 Este 26 Este 0 -- -- 86
2019-04-13 15:00:00 -- 19 Este 27 Este 0 -- -- 87
2019-04-13 14:00:00 -- 17 Este 23 Este 0 -- -- 88
2019-04-13 13:00:00 -- 13 Este 20 Sudeste 0 -- -- 89
2019-04-13 12:00:00 -- 13 Este 20 Sudeste 0 -- -- 87
2019-04-13 11:00:00 -- 12 Este 16 Sudeste 0 -- -- 86
2019-04-13 10:00:00 -- 7 Este 11 Este 0 -- -- 85
2019-04-13 09:00:00 -- 2 Sur 6 Sudoeste 0 -- -- 89
2019-04-13 08:00:00 -- 3 Noroeste 7 Sur 0 -- -- 90
2019-04-13 07:00:00 -- 6 Sudeste 17 Sudeste 0 -- -- 91
2019-04-13 06:00:00 -- 12 Sudeste 18 Sudeste 0 -- -- 92
2019-04-13 05:00:00 -- 15 Sudeste 19 Sudeste 0 -- -- 92
2019-04-13 04:00:00 -- 13 Sudeste 20 Sudeste 0 -- -- 92
2019-04-13 03:00:00 -- 15 Este 27 Este 0 -- -- 91
2019-04-13 02:00:00 -- 18 Este 25 Este 0 -- -- 91
2019-04-13 01:00:00 -- 18 Este 28 Sudeste 0 -- -- 91
2019-04-13 00:00:00 -- 23 Sudeste 36 Este 0 -- -- 91
2019-04-12 23:00:00 -- 26 Este 40 Este 0 -- -- 90
2019-04-12 22:00:00 -- 27 Este 40 Este 0 -- -- 90
2019-04-12 21:00:00 -- 28 Este 40 Este 0 -- -- 90
2019-04-12 20:00:00 -- 28 Este 40 Este 0 -- -- 87
2019-04-12 19:00:00 -- 27 Este 36 Este 0 -- -- 87
2019-04-12 18:00:00 -- 26 Este 37 Este 0 -- -- 87
2019-04-12 17:00:00 -- 26 Este 37 Este 0 -- -- 84
2019-04-12 16:00:00 -- 23 Este 33 Este 0 -- -- 84
2019-04-12 15:00:00 -- 24 Este 36 Este 0 -- -- 86
2019-04-12 14:00:00 -- 21 Este 30 Este 0 -- -- 86
2019-04-12 13:00:00 -- 17 Este 25 Este 0 -- -- 87
2019-04-12 12:00:00 -- 10 Este 23 Este 0 -- -- 89
2019-04-12 11:00:00 -- 13 Este 19 Este 0 -- -- 89
2019-04-12 10:00:00 -- 14 Sudeste 21 Sudeste 0 -- -- 90
2019-04-12 09:00:00 -- 16 Sudeste 22 Sudeste 0 -- -- 91
2019-04-12 08:00:00 -- 7 Sudeste 13 Sudeste 0 -- -- 92
2019-04-12 07:00:00 -- 7 Sudeste 13 Sudeste 0 -- -- 92
2019-04-12 06:00:00 -- 5 Sudeste 11 Sudeste 0 -- -- 92
2019-04-12 05:00:00 -- 4 Sur 9 Sudeste 0 -- -- 92
2019-04-12 04:00:00 -- 4 Sudeste 8 Sudeste 0 -- -- 92
2019-04-12 03:00:00 -- 6 Sudeste 11 Sudeste 0 -- -- 92
2019-04-12 02:00:00 -- 7 Sudeste 10 Sudeste 0 -- -- 92
2019-04-12 01:00:00 -- 5 Sudeste 7 Este 0 -- -- 91
2019-04-12 00:00:00 -- 0 Calma 4 Este 0 -- -- 90
2019-04-11 23:00:00 -- 0 Calma 4 Este 0 -- -- 90
2019-04-11 22:00:00 -- 0 Calma 4 Nordeste 0 -- -- 90
2019-04-11 21:00:00 -- 0 Calma 6 Este 0 -- -- 90
2019-04-11 20:00:00 -- 3 Este 11 Sudeste 0 -- -- 90
2019-04-11 19:00:00 -- 8 Noroeste 18 Noroeste 0 -- -- 91
2019-04-11 18:00:00 -- 10 Noroeste 22 Oeste 0 -- -- 91
2019-04-11 17:00:00 -- 8 Oeste 27 Noroeste 0.1 -- -- 92
2019-04-11 16:00:00 -- 13 Noroeste 31 Noroeste 0.5 -- -- 92
2019-04-11 15:00:00 -- 10 Noroeste 31 Oeste 1 -- -- 92
2019-04-11 14:00:00 -- 14 Noroeste 34 Oeste 0.1 -- -- 88
2019-04-11 13:00:00 -- 16 Oeste 30 Oeste 0 -- -- 91
2019-04-11 12:00:00 -- 15 Oeste 29 Oeste 0 -- -- 91
2019-04-11 11:00:00 -- 14 Oeste 24 Sudoeste 0 -- -- 91
2019-04-11 10:00:00 -- 14 Sudoeste 23 Sudoeste 0 -- -- 91
2019-04-11 09:00:00 -- 15 Sudoeste 22 Sudoeste 0 -- -- 92
2019-04-11 08:00:00 -- 14 Sudoeste 22 Sudoeste 0 -- -- 92
2019-04-11 07:00:00 -- 15 Sudoeste 22 Sudoeste 0 -- -- 92
2019-04-11 06:00:00 -- 12 Sudoeste 18 Sudoeste 0 -- -- 92
2019-04-11 05:00:00 -- 11 Sudoeste 17 Sudoeste 0 -- -- 92
2019-04-11 04:00:00 -- 12 Sudoeste 18 Oeste 0 -- -- 92
2019-04-11 03:00:00 -- 10 Sudoeste 17 Noroeste 0 -- -- 92
2019-04-11 02:00:00 -- 10 Noroeste 18 Noroeste 0 -- -- 88
2019-04-11 01:00:00 -- 11 Noroeste 22 Noroeste 0 -- -- 89
2019-04-11 00:00:00 -- 9 Noroeste 18 Noroeste 0 -- -- 88
2019-04-10 23:00:00 -- 13 Noroeste 22 Noroeste 0 -- -- 88
2019-04-10 22:00:00 -- 13 Noroeste 23 Noroeste 0 -- -- 89
2019-04-10 21:00:00 -- 9 Noroeste 18 Noroeste 0 -- -- 88
2019-04-10 20:00:00 -- 9 Noroeste 17 Noroeste 0 -- -- 86
2019-04-10 19:00:00 -- 9 Noroeste 18 Noroeste 0 -- -- 85
2019-04-10 18:00:00 -- 9 Noroeste 19 Noroeste 0 -- -- 84
2019-04-10 17:00:00 -- 0 Calma 18 Norte 0 -- -- 83
2019-04-10 16:00:00 -- 4 Sudeste 13 Sudeste 0 -- -- 81
2019-04-10 15:00:00 -- 4 Sur 18 Sudeste 0 -- -- 83
2019-04-10 14:00:00 -- 6 Sur 19 Sur 0 -- -- 87
2019-04-10 13:00:00 -- 6 Sur 25 Sudoeste 0 -- -- 89
2019-04-10 12:00:00 -- 6 Sur 20 Este 0 -- -- 91
2019-04-10 11:00:00 -- 4 Sudeste 50 Noroeste 0 -- -- 92
2019-04-10 10:00:00 -- 33 Noroeste 59 Noroeste 0.1 -- -- 91
2019-04-10 09:00:00 -- 35 Noroeste 57 Norte 0.4 -- -- 94
2019-04-10 08:00:00 -- 21 Sudoeste 39 Sudoeste 1.1 -- -- 94
2019-04-10 07:00:00 -- 27 Sudoeste 47 Oeste 1.3 -- -- 93
2019-04-10 06:00:00 -- 28 Sudoeste 51 Sudoeste 0.9 -- -- 94
2019-04-10 05:00:00 -- 30 Sudoeste 75 Sur 1.5 -- -- 91
2019-04-10 04:00:00 -- 21 Sudoeste 45 Sudoeste 1.2 -- -- 92
2019-04-10 03:00:00 -- 25 Sudoeste 48 Oeste 1.2 -- -- 87
2019-04-10 02:00:00 -- 18 Sudoeste 32 Sudoeste 0.1 -- -- 82
2019-04-10 01:00:00 -- 19 Sudoeste 38 Oeste 0 -- -- 82
2019-04-10 00:00:00 -- 17 Oeste 35 Oeste 0 -- -- 88
2019-04-09 23:00:00 -- 21 Sudoeste 38 Sudoeste 0 -- -- 83
2019-04-09 22:00:00 -- 15 Sudoeste 54 Sudoeste 0.2 -- -- 85
2019-04-09 21:00:00 -- 20 Sudoeste 30 Sudoeste 0 -- -- 72
2019-04-09 20:00:00 -- 4 Sudeste 27 Oeste 0.1 -- -- 85
2019-04-09 19:00:00 -- 18 Oeste 46 Oeste 0 -- -- 87
2019-04-09 18:00:00 -- 10 Oeste 26 Sudoeste 0 -- -- 66
2019-04-09 17:00:00 -- 4 Noroeste 16 Noroeste 0 -- -- 66
2019-04-09 16:00:00 -- 6 Noroeste 15 Oeste 0 -- -- 61
2019-04-09 15:00:00 -- 5 Oeste 14 Sudoeste 0 -- -- 63
2019-04-09 14:00:00 -- 6 Oeste 15 Noroeste 0 -- -- 72
2019-04-09 13:00:00 -- 8 Oeste 16 Oeste 0 -- -- 73
2019-04-09 12:00:00 -- 8 Sudoeste 16 Oeste 0 -- -- 84
2019-04-09 11:00:00 -- 6 Oeste 22 Oeste 0 -- -- 86
2019-04-09 10:00:00 -- 10 Sudoeste 17 Sudoeste 0 -- -- 91
2019-04-09 09:00:00 -- 5 Sur 20 Sur 0.3 -- -- 90
2019-04-09 08:00:00 -- 3 Este 8 Este 0.1 -- -- 87
2019-04-09 07:00:00 -- 4 Noroeste 12 Sur 0.2 -- -- 87
2019-04-09 06:00:00 -- 2 Este 9 Sudeste 0.1 -- -- 82
2019-04-09 05:00:00 -- 2 Sudeste 12 Sudoeste 0 -- -- 86
2019-04-09 04:00:00 -- 2 Sudeste 9 Sur 0 -- -- 83
2019-04-09 03:00:00 -- 7 Sur 20 Sudoeste 0.1 -- -- 91
2019-04-09 02:00:00 -- 11 Sudoeste 22 Sudoeste 0 -- -- 90
2019-04-09 01:00:00 -- 16 Sudeste 23 Sudeste 0 -- -- 88
2019-04-09 00:00:00 -- 14 Este 21 Sudeste 0 -- -- 86
2019-04-08 23:00:00 -- 5 Sudeste 39 Sudeste 0 -- -- 87
2019-04-08 22:00:00 -- 31 Sudeste 47 Sudeste 0 -- -- 90
2019-04-08 21:00:00 -- 23 Este 40 Este 0 -- -- 91
2019-04-08 20:00:00 -- 21 Este 58 Este 0 -- -- 86
2019-04-08 19:00:00 -- 13 Este 24 Este 0.5 -- -- 85
2019-04-08 18:00:00 -- 17 Este 26 Este 0 -- -- 81
2019-04-08 17:00:00 -- 15 Este 21 Este 0 -- -- 76
2019-04-08 16:00:00 -- 3 Norte 14 Nordeste 0 -- -- 63
2019-04-08 15:00:00 -- 2 Norte 29 Noroeste 0 -- -- 76
2019-04-08 14:00:00 -- 17 Noroeste 31 Noroeste 0 -- -- 72
2019-04-08 13:00:00 -- 9 Noroeste 25 Noroeste 0 -- -- 73
2019-04-08 12:00:00 -- 15 Oeste 24 Oeste 0.1 -- -- 64
2019-04-08 11:00:00 -- 13 Oeste 22 Oeste 0 -- -- 73
2019-04-08 10:00:00 -- 12 Sudoeste 30 Sudoeste 0 -- -- 86
2019-04-08 09:00:00 -- 18 Oeste 42 Oeste 0 -- -- 85
2019-04-08 08:00:00 -- 10 Oeste 40 Noroeste 0 -- -- 91
2019-04-08 07:00:00 -- 13 Noroeste 36 Noroeste 0 -- -- 90
2019-04-08 06:00:00 -- 20 Oeste 36 Oeste 0 -- -- 91
2019-04-08 05:00:00 -- 21 Oeste 42 Sudoeste 0.2 -- -- 94
2019-04-08 04:00:00 -- 19 Oeste 31 Sudoeste 0 -- -- 90
2019-04-08 03:00:00 -- 5 Sudeste 14 Sudeste 0.1 -- -- 86
2019-04-08 02:00:00 -- 6 Sudeste 17 Sudeste 0.8 -- -- 91
2019-04-08 01:00:00 -- 12 Sudeste 26 Sudeste 0.3 -- -- 92
2019-04-08 00:00:00 -- 22 Sudeste 30 Sudeste 0 -- -- 91
2019-04-07 23:00:00 -- 19 Sudeste 33 Sudeste 0 -- -- 91
2019-04-07 22:00:00 -- 22 Sudeste 39 Sudeste 0 -- -- 91
2019-04-07 21:00:00 -- 17 Sudeste 27 Sudeste 0.6 -- -- 91
2019-04-07 20:00:00 -- 23 Sudeste 30 Sudeste 0 -- -- 86
2019-04-07 19:00:00 -- 21 Este 28 Este 0 -- -- 82
2019-04-07 18:00:00 -- 17 Este 26 Este 0 -- -- 76
2019-04-07 17:00:00 -- 7 Este 31 Sudeste 0 -- -- 69
2019-04-07 16:00:00 -- 4 Sudeste 15 Sur 0 -- -- 66
2019-04-07 15:00:00 -- 2 Sudeste 20 Nordeste 0 -- -- 68
2019-04-07 14:00:00 -- 10 Noroeste 21 Norte 0 -- -- 64
2019-04-07 13:00:00 -- 5 Noroeste 24 Oeste 0 -- -- 59
2019-04-07 12:00:00 -- 13 Oeste 34 Sudoeste 0 -- -- 63
2019-04-07 11:00:00 -- 23 Sudoeste 33 Sudoeste 0 -- -- 68
2019-04-07 10:00:00 -- 26 Sudoeste 37 Sudoeste 0 -- -- 73
2019-04-07 09:00:00 -- 25 Sudoeste 35 Sudoeste 0 -- -- 73
2019-04-07 08:00:00 -- 20 Sudoeste 32 Sudoeste 0.1 -- -- 76
2019-04-07 07:00:00 -- 23 Sudoeste 37 Oeste 0.2 -- -- 84
2019-04-07 06:00:00 -- 23 Sudoeste 35 Sudoeste 0.1 -- -- 84
2019-04-07 05:00:00 -- 19 Sudoeste 50 Sudoeste 0 -- -- 87
2019-04-07 04:00:00 -- 25 Oeste 47 Oeste 2.1 -- -- 87
2019-04-07 03:00:00 -- 16 Noroeste 55 Noroeste 4.8 -- -- 92
2019-04-07 02:00:00 -- 27 Oeste 44 Oeste 1.7 -- -- 88
2019-04-07 01:00:00 -- 21 Sudoeste 49 Oeste 3.4 -- -- 91
2019-04-07 00:00:00 -- 21 Oeste 48 Oeste 3.5 -- -- 91
2019-04-06 23:00:00 -- 27 Sudoeste 49 Sudoeste 3 -- -- 94
2019-04-06 22:00:00 -- 25 Sudoeste 41 Sudoeste 1.9 -- -- 93
2019-04-06 21:00:00 -- 29 Sudoeste 44 Sudoeste 0.4 -- -- 92
2019-04-06 20:00:00 -- 27 Sudoeste 49 Oeste 0.1 -- -- 94
2019-04-06 19:00:00 -- 19 Oeste 54 Oeste 0.1 -- -- 86
2019-04-06 18:00:00 -- 31 Oeste 50 Oeste 0.2 -- -- 91
2019-04-06 17:00:00 -- 19 Sudoeste 34 Oeste 0.4 -- -- 91
2019-04-06 16:00:00 -- 6 Oeste 39 Oeste 0 -- -- 88
2019-04-06 15:00:00 -- 13 Noroeste 28 Norte 0.2 -- -- 76
2019-04-06 14:00:00 -- 6 Noroeste 15 Noroeste 0 -- -- 64
2019-04-06 13:00:00 -- 5 Oeste 20 Oeste 0 -- -- 73
2019-04-06 12:00:00 -- 9 Oeste 18 Sudoeste 0 -- -- 76
2019-04-06 11:00:00 -- 10 Este 20 Este 0 -- -- 71
2019-04-06 10:00:00 -- 14 Sudeste 21 Este 0 -- -- 75
2019-04-06 09:00:00 -- 14 Sudeste 28 Este 0 -- -- 82
2019-04-06 08:00:00 -- 14 Este 23 Este 0 -- -- 81
2019-04-06 07:00:00 -- 4 Nordeste 15 Sur 0 -- -- 76
2019-04-06 06:00:00 -- 5 Sur 14 Sudeste 0 -- -- 81
2019-04-06 05:00:00 -- 6 Sur 15 Sudoeste 0 -- -- 76
2019-04-06 04:00:00 -- 6 Sur 13 Sur 0 -- -- 82
2019-04-06 03:00:00 -- 10 Sudoeste 24 Sudoeste 0 -- -- 74
2019-04-06 02:00:00 -- 15 Sudoeste 28 Sudoeste 0 -- -- 76
2019-04-06 01:00:00 -- 17 Sudoeste 24 Sudoeste 0 -- -- 76
2019-04-06 00:00:00 -- 15 Sudoeste 23 Sudoeste 0 -- -- 79
2019-04-05 23:00:00 -- 14 Sudoeste 21 Sudoeste 0 -- -- 84
2019-04-05 22:00:00 -- 15 Sudoeste 23 Sudoeste 0 -- -- 83
2019-04-05 21:00:00 -- 15 Oeste 38 Oeste 0 -- -- 83
2019-04-05 20:00:00 -- 19 Sudoeste 83 Sudoeste 0 -- -- 83
2019-04-05 19:00:00 -- 31 Oeste 57 Oeste 0 -- -- 83
2019-04-05 18:00:00 -- 12 Sudoeste 26 Sudoeste 0.1 -- -- 76
2019-04-05 17:00:00 -- 4 Este 21 Este 0 -- -- 75
2019-04-05 16:00:00 -- 15 Este 21 Este 0 -- -- 76
2019-04-05 15:00:00 -- 14 Este 18 Este 0 -- -- 74
2019-04-05 14:00:00 -- 4 Sudeste 13 Sudeste 0 -- -- 75
2019-04-05 13:00:00 -- 7 Este 17 Este 0 -- -- 73
2019-04-05 12:00:00 -- 7 Oeste 27 Sudoeste 0 -- -- 66
2019-04-05 11:00:00 -- 18 Sudoeste 26 Sudoeste 0 -- -- 72
2019-04-05 10:00:00 -- 12 Sudoeste 26 Sudoeste 0 -- -- 81
2019-04-05 09:00:00 -- 14 Sudoeste 20 Sudoeste 0 -- -- 85
2019-04-05 08:00:00 -- 9 Sur 14 Sudoeste 0 -- -- 87
2019-04-05 07:00:00 -- 11 Sudoeste 18 Sudoeste 0 -- -- 88
2019-04-05 06:00:00 -- 12 Sudoeste 21 Sudoeste 0 -- -- 91
2019-04-05 05:00:00 -- 12 Oeste 28 Oeste 0.3 -- -- 90
2019-04-05 04:00:00 -- 11 Oeste 31 Noroeste 0.1 -- -- 92
2019-04-05 03:00:00 -- 6 Noroeste 15 Norte 0.6 -- -- 91
2019-04-05 02:00:00 -- 9 Noroeste 21 Noroeste 0.9 -- -- 90
2019-04-05 01:00:00 -- 8 Oeste 21 Oeste 0 -- -- 76
2019-04-05 00:00:00 -- 9 Sudoeste 13 Sudoeste 0 -- -- 87
2019-04-04 23:00:00 -- 3 Sur 17 Sudeste 0 -- -- 84
2019-04-04 22:00:00 -- 4 Sur 21 Sudeste 0.3 -- -- 84
2019-04-04 21:00:00 -- 4 Sudeste 19 Sudeste 0.3 -- -- 86
2019-04-04 20:00:00 -- 2 Sur 12 Sur 0.2 -- -- 87
2019-04-04 19:00:00 -- 5 Sur 18 Sudoeste 0.8 -- -- 87
2019-04-04 18:00:00 -- 3 Sudeste 22 Sudoeste 0.7 -- -- 84
2019-04-04 17:00:00 -- 12 Sudoeste 24 Sudoeste 0.2 -- -- 76
2019-04-04 16:00:00 -- 13 Sudoeste 30 Sudoeste 0 -- -- 58
2019-04-04 15:00:00 -- 20 Sudoeste 32 Sudoeste 0 -- -- 50
2019-04-04 14:00:00 -- 23 Sudoeste 37 Sudoeste 0 -- -- 53
2019-04-04 13:00:00 -- 24 Sudoeste 44 Sudoeste 0 -- -- 55
2019-04-04 12:00:00 -- 23 Sudoeste 37 Sudoeste 0.1 -- -- 63
2019-04-04 11:00:00 -- 24 Sudoeste 43 Sudoeste 0 -- -- 71
2019-04-04 10:00:00 -- 23 Sudoeste 34 Sudoeste 0 -- -- 79
2019-04-04 09:00:00 -- 21 Sudoeste 32 Sudoeste 0 -- -- 83
2019-04-04 08:00:00 -- 21 Sudoeste 58 Sudoeste 0.3 -- -- 87
2019-04-04 07:00:00 -- 20 Sudoeste 42 Sudoeste 0 -- -- 88
2019-04-04 06:00:00 -- 22 Sudoeste 38 Sudoeste 0 -- -- 90
2019-04-04 05:00:00 -- 30 Sudoeste 44 Sudoeste 0.4 -- -- 91
2019-04-04 04:00:00 -- 27 Sudoeste 48 Oeste 0.2 -- -- 88
2019-04-04 03:00:00 -- 24 Sudoeste 35 Sudoeste 0 -- -- 91
2019-04-04 02:00:00 -- 22 Sudoeste 68 Oeste 0 -- -- 88
2019-04-04 01:00:00 -- 20 Oeste 55 Oeste 0.1 -- -- 79
2019-04-04 00:00:00 -- 14 Noroeste 54 Noroeste 0.4 -- -- 83
2019-04-03 23:00:00 -- 18 Noroeste 98 Oeste 0 -- -- 74
2019-04-03 22:00:00 -- 25 Noroeste 58 Noroeste 0 -- -- 71
2019-04-03 21:00:00 -- 21 Noroeste 84 Oeste 0 -- -- 74
2019-04-03 20:00:00 -- 21 Noroeste 57 Noroeste 0 -- -- 69
2019-04-03 19:00:00 -- 16 Noroeste 71 Noroeste 0.9 -- -- 79
2019-04-03 18:00:00 -- 11 Noroeste 46 Norte 0.1 -- -- 87
2019-04-03 17:00:00 -- 15 Noroeste 73 Norte 0.1 -- -- 79
2019-04-03 16:00:00 -- 26 Noroeste 76 Norte 0.7 -- -- 86
2019-04-03 15:00:00 -- 37 Noroeste 60 Noroeste 0 -- -- 65
2019-04-03 14:00:00 -- 25 Noroeste 83 Noroeste 0.1 -- -- 72
2019-04-03 13:00:00 -- 33 Noroeste 74 Norte 1 -- -- 75
2019-04-03 12:00:00 -- 24 Noroeste 45 Noroeste 1.1 -- -- 90
2019-04-03 11:00:00 -- 28 Oeste 68 Noroeste 0.4 -- -- 84
2019-04-03 10:00:00 -- 27 Noroeste 62 Noroeste 0.9 -- -- 80
2019-04-03 09:00:00 -- 31 Noroeste 81 Noroeste 0.4 -- -- 87
2019-04-03 08:00:00 -- 20 Noroeste 70 Noroeste 0 -- -- 76
2019-04-03 07:00:00 -- 26 Noroeste 59 Noroeste 0.1 -- -- 84
2019-04-03 06:00:00 -- 24 Noroeste 60 Norte 0.1 -- -- 88
2019-04-03 05:00:00 -- 16 Noroeste 51 Noroeste 0.2 -- -- 87
2019-04-03 04:00:00 -- 30 Noroeste 54 Noroeste 0.1 -- -- 86
2019-04-03 03:00:00 -- 22 Noroeste 58 Noroeste 1.8 -- -- 90
2019-04-03 02:00:00 -- 27 Noroeste 53 Noroeste 0.1 -- -- 82
2019-04-03 01:00:00 -- 21 Noroeste 46 Noroeste 0.1 -- -- 76
2019-04-03 00:00:00 -- 17 Noroeste 41 Noroeste 0 -- -- 83
2019-04-02 23:00:00 -- 17 Noroeste 39 Noroeste 0 -- -- 74
2019-04-02 22:00:00 -- 22 Noroeste 39 Noroeste 0 -- -- 76
2019-04-02 21:00:00 -- 18 Noroeste 37 Noroeste 0 -- -- 81
2019-04-02 20:00:00 -- 22 Noroeste 45 Noroeste 0 -- -- 84
2019-04-02 19:00:00 -- 26 Noroeste 44 Noroeste 0 -- -- 87
2019-04-02 18:00:00 -- 23 Noroeste 45 Noroeste 0 -- -- 76
2019-04-02 17:00:00 -- 27 Noroeste 41 Noroeste 0 -- -- 83
2019-04-02 16:00:00 -- 23 Noroeste 41 Noroeste 0 -- -- 84
2019-04-02 15:00:00 -- 15 Oeste 37 Noroeste 0 -- -- 86
2019-04-02 14:00:00 -- 17 Oeste 31 Oeste 0 -- -- 83
2019-04-02 13:00:00 -- 14 Oeste 24 Oeste 0 -- -- 83
2019-04-02 12:00:00 -- 16 Sudoeste 21 Sudoeste 0 -- -- 86
2019-04-02 11:00:00 -- 7 Noroeste 23 Norte 0 -- -- 86
2019-04-02 10:00:00 -- 12 Noroeste 27 Noroeste 0 -- -- 86
2019-04-02 09:00:00 -- 15 Noroeste 33 Noroeste 0 -- -- 87
2019-04-02 08:00:00 -- 21 Noroeste 40 Noroeste 0 -- -- 84
2019-04-02 07:00:00 -- 22 Noroeste 35 Noroeste 0 -- -- 90
2019-04-02 06:00:00 -- 12 Oeste 33 Oeste 0 -- -- 92
2019-04-02 05:00:00 -- 17 Oeste 34 Oeste 0 -- -- 94
2019-04-02 04:00:00 -- 18 Oeste 33 Oeste 0 -- -- 94
2019-04-02 03:00:00 -- 17 Oeste 26 Oeste 0 -- -- 94
2019-04-02 02:00:00 -- 17 Oeste 23 Oeste 0 -- -- 94
2019-04-02 01:00:00 -- 15 Oeste 22 Oeste 0 -- -- 94
2019-04-02 00:00:00 -- 7 Sudoeste 10 Oeste 0 -- -- 92
2019-04-01 23:00:00 -- 0 Calma 4 Sudeste 0 -- -- 92
2019-04-01 22:00:00 -- 2 Sudeste 6 Sudeste 0 -- -- 92
2019-04-01 21:00:00 -- 5 Este 10 Este 0 -- -- 92
2019-04-01 20:00:00 -- 6 Este 13 Este 0 -- -- 91
2019-04-01 19:00:00 -- 9 Este 15 Nordeste 0 -- -- 90
2019-04-01 18:00:00 -- 5 Nordeste 12 Norte 0 -- -- 88
2019-04-01 17:00:00 -- 5 Norte 12 Noroeste 0 -- -- 89
2019-04-01 16:00:00 -- 3 Sudeste 8 Este 0 -- -- 86
2019-04-01 15:00:00 -- 3 Norte 9 Nordeste 0 -- -- 89
2019-04-01 14:00:00 -- 3 Norte 7 Norte 0 -- -- 90
2019-04-01 13:00:00 -- 4 Norte 6 Oeste 0 -- -- 91
2019-04-01 12:00:00 -- 3 Norte 6 Nordeste 0 -- -- 92
2019-04-01 11:00:00 -- 3 Norte 5 Norte 0 -- -- 92
2019-04-01 10:00:00 -- 0 Calma 5 Este 0 -- -- 92
2019-04-01 09:00:00 -- 0 Calma 5 Este 0 -- -- 92
2019-04-01 08:00:00 -- 4 Este 6 Nordeste 0 -- -- 92
2019-04-01 07:00:00 -- 5 Nordeste 6 Nordeste 0 -- -- 91
2019-04-01 06:00:00 -- 4 Este 18 Sudeste 0 -- -- 91
2019-04-01 05:00:00 -- 15 Sudeste 24 Sudeste 0 -- -- 92
2019-04-01 04:00:00 -- 15 Este 28 Sudeste 0 -- -- 92
2019-04-01 03:00:00 -- 18 Este 28 Este 0 -- -- 92
2019-04-01 02:00:00 -- 19 Este 26 Este 0 -- -- 92
2019-04-01 01:00:00 -- 17 Este 24 Este 0 -- -- 92
2019-04-01 00:00:00 -- 19 Este 31 Este 0 -- -- 91
2019-03-31 23:00:00 -- 23 Este 32 Este 0 -- -- 90
2019-03-31 22:00:00 -- 14 Este 31 Sudeste 0 -- -- 88
2019-03-31 21:00:00 -- 12 Este 27 Este 0 -- -- 90
2019-03-31 20:00:00 -- 12 Este 22 Este 0 -- -- 90
2019-03-31 19:00:00 -- 14 Este 23 Este 0 -- -- 90
2019-03-31 18:00:00 -- 15 Este 26 Este 0 -- -- 91
2019-03-31 17:00:00 -- 14 Este 25 Este 0 -- -- 91
2019-03-31 16:00:00 -- 13 Sudeste 26 Este 0 -- -- 90
2019-03-31 15:00:00 -- 13 Este 26 Este 0 -- -- 90
2019-03-31 14:00:00 -- 12 Este 23 Este 0 -- -- 90
2019-03-31 13:00:00 -- 15 Este 21 Sudeste 0 -- -- 88
2019-03-31 12:00:00 -- 17 Este 23 Este 0 -- -- 89
2019-03-31 11:00:00 -- 13 Este 21 Sudeste 0 -- -- 92
2019-03-31 10:00:00 -- 10 Este 19 Sudeste 0 -- -- 93
2019-03-31 09:00:00 -- 11 Sudeste 18 Sudeste 0 -- -- 93
2019-03-31 08:00:00 -- 13 Este 21 Este 0 -- -- 94
2019-03-31 07:00:00 -- 16 Este 28 Este 0 -- -- 94
2019-03-31 06:00:00 -- 20 Este 33 Este 0 -- -- 94
2019-03-31 05:00:00 -- 26 Sudeste 36 Este 0 -- -- 93
2019-03-31 03:00:00 -- 16 Este 24 Este 0 -- -- 92
2019-03-31 01:00:00 -- 17 Este 22 Este 0 -- -- 92
2019-03-31 00:00:00 -- 18 Sudeste 28 Este 0 -- -- 92
2019-03-30 23:00:00 -- 19 Este 26 Este 0 -- -- 92
2019-03-30 22:00:00 -- 18 Este 24 Este 0 -- -- 92
2019-03-30 21:00:00 -- 17 Este 23 Sudeste 0 -- -- 92
2019-03-30 20:00:00 -- 17 Este 25 Sudeste 0 -- -- 92
2019-03-30 19:00:00 -- 21 Sudeste 27 Sudeste 0 -- -- 92
2019-03-30 18:00:00 -- 18 Este 22 Este 0 -- -- 91
2019-03-30 17:00:00 -- 15 Este 20 Este 0 -- -- 90
2019-03-30 16:00:00 -- 8 Este 15 Este 0 -- -- 92
2019-03-30 15:00:00 -- 8 Este 14 Este 0 -- -- 92
2019-03-30 14:00:00 -- 10 Este 18 Este 0 -- -- 92
2019-03-30 13:00:00 -- 12 Este 17 Este 0 -- -- 92
2019-03-30 12:00:00 -- 7 Este 16 Este 0 -- -- 91
2019-03-30 11:00:00 -- 11 Este 15 Este 0 -- -- 94
2019-03-30 10:00:00 -- 6 Este 13 Sudeste 0 -- -- 94
2019-03-30 09:00:00 -- 5 Este 9 Este 0 -- -- 94
2019-03-30 08:00:00 -- 3 Sudeste 11 Sudeste 0 -- -- 93
2019-03-30 07:00:00 -- 6 Sudeste 9 Sudeste 0 -- -- 94
2019-03-30 06:00:00 -- 0 Calma 6 Nordeste 0 -- -- 93
2019-03-30 05:00:00 -- 2 Sur 11 Oeste 0 -- -- 93
2019-03-30 04:00:00 -- 8 Oeste 10 Oeste 0 -- -- 94
2019-03-30 03:00:00 -- 6 Oeste 8 Oeste 0 -- -- 94
2019-03-30 02:00:00 -- 4 Sudoeste 6 Sudoeste 0 -- -- 94
2019-03-30 01:00:00 -- 2 Sudeste 15 Este 0 -- -- 94
2019-03-30 00:00:00 -- 10 Este 16 Este 0 -- -- 94
2019-03-29 23:00:00 -- 13 Este 24 Este 0 -- -- 94
2019-03-29 22:00:00 -- 17 Este 25 Este 0 -- -- 94
2019-03-29 21:00:00 -- 18 Este 28 Este 0 -- -- 94
2019-03-29 20:00:00 -- 21 Este 30 Este 0 -- -- 93
2019-03-29 19:00:00 -- 18 Este 25 Este 0 -- -- 92
2019-03-29 18:00:00 -- 17 Este 30 Este 0 -- -- 91
2019-03-29 17:00:00 -- 18 Este 29 Sudeste 0 -- -- 90
2019-03-29 16:00:00 -- 18 Este 27 Sudeste 0 -- -- 89
2019-03-29 15:00:00 -- 12 Sudeste 26 Sudeste 0 -- -- 88
2019-03-29 14:00:00 -- 9 Sudeste 19 Sudeste 0 -- -- 88
2019-03-29 13:00:00 -- 6 Este 15 Este 0 -- -- 88
2019-03-29 12:00:00 -- 8 Este 15 Sudeste 0 -- -- 87
2019-03-29 11:00:00 -- 9 Este -- -- -- -- -- 87
2019-03-29 10:00:00 -- -- -- -- -- -- -- -- --
2019-03-29 09:00:00 -- -- -- -- -- -- -- -- --
2019-03-29 08:00:00 -- -- -- -- -- -- -- -- --
2019-03-29 07:00:00 -- -- -- -- -- -- -- -- --
2019-03-29 06:00:00 -- -- -- -- -- -- -- -- --
2019-03-29 05:00:00 -- -- -- -- -- -- -- -- --
2019-03-29 04:00:00 -- -- -- -- -- -- -- -- --
2019-03-29 03:00:00 -- -- -- -- -- -- -- -- --
2019-03-29 02:00:00 -- -- -- -- -- -- -- -- --
2019-03-29 01:00:00 -- -- -- -- -- -- -- -- --
2019-03-29 00:00:00 -- -- -- -- -- -- -- -- --
2019-03-28 23:00:00 -- -- -- -- -- -- -- -- --
2019-03-28 22:00:00 -- -- -- -- -- -- -- -- --
2019-03-28 21:00:00 -- -- -- -- -- -- -- -- --
2019-03-28 20:00:00 -- -- -- -- -- -- -- -- --
2019-03-28 19:00:00 -- -- -- -- -- -- -- -- --
2019-03-28 18:00:00 -- -- -- -- -- -- -- -- --
2019-03-28 17:00:00 -- -- -- -- -- -- -- -- --
2019-03-28 16:00:00 -- -- -- -- -- -- -- -- --
2019-03-28 15:00:00 -- -- -- -- -- -- -- -- --
2019-03-28 14:00:00 -- -- -- -- -- -- -- -- --
2019-03-28 13:00:00 -- -- -- -- -- -- -- -- --
2019-03-28 12:00:00 -- -- -- -- -- -- -- -- --
2019-03-28 11:00:00 -- -- -- -- -- -- -- -- --
2019-03-28 10:00:00 -- 16 Este 23 Sudeste 0 -- -- 76
2019-03-28 09:00:00 -- 14 Este 19 Este 0 -- -- 81
2019-03-28 08:00:00 -- 10 Sudeste 19 Este 0 -- -- 88
2019-03-28 07:00:00 -- 14 Sudeste 21 Sudeste 0 -- -- 88
2019-03-28 06:00:00 -- 14 Sudeste 23 Sudeste 0 -- -- 89
2019-03-28 05:00:00 -- 17 Sudeste 30 Este 0 -- -- 88
2019-03-28 04:00:00 -- 21 Este 34 Este 0 -- -- 88
2019-03-28 03:00:00 -- 23 Sudeste 33 Este 0 -- -- 90
2019-03-28 02:00:00 -- 20 Este 39 Este 0 -- -- 90
2019-03-28 01:00:00 -- 23 Este 43 Este 0 -- -- 88
2019-03-28 00:00:00 -- 30 Este 44 Este 0 -- -- 84
2019-03-27 23:00:00 -- 30 Este 48 Este 0 -- -- 84
2019-03-27 22:00:00 -- 31 Este 51 Este 0 -- -- 83
2019-03-27 21:00:00 -- 35 Este 54 Este 0 -- -- 86
2019-03-27 20:00:00 -- 33 Este 54 Este 0 -- -- 84
2019-03-27 19:00:00 -- 33 Este 57 Este 0 -- -- 83
2019-03-27 18:00:00 -- 33 Este 58 Este 0 -- -- 81
2019-03-27 17:00:00 -- 34 Este 58 Este 0 -- -- 79
2019-03-27 16:00:00 -- 34 Este 55 Este 0 -- -- 78
2019-03-27 15:00:00 -- 31 Este 51 Este 0 -- -- 76
2019-03-27 14:00:00 -- 31 Este 53 Este 0 -- -- 76
2019-03-27 13:00:00 -- 31 Este 49 Este 0 -- -- 76
2019-03-27 12:00:00 -- 31 Este 47 Este 0 -- -- 76
2019-03-27 11:00:00 -- 28 Este 50 Este 0 -- -- 76
2019-03-27 10:00:00 -- 28 Este 45 Este 0 -- -- 76
2019-03-27 09:00:00 -- 23 Este 36 Este 0 -- -- 87
2019-03-27 08:00:00 -- 27 Este 45 Este 0 -- -- 88
2019-03-27 07:00:00 -- 32 Este 48 Este 0 -- -- 87
2019-03-27 06:00:00 -- 31 Este 55 Este 0 -- -- 87
2019-03-27 05:00:00 -- 32 Este 55 Este 0 -- -- 88
2019-03-27 04:00:00 -- 30 Este 49 Este 0 -- -- 88
2019-03-27 03:00:00 -- 33 Este 50 Este 0 -- -- 88
2019-03-27 02:00:00 -- 36 Este 60 Este 0 -- -- 88
2019-03-27 01:00:00 -- 40 Este 60 Este 0 -- -- 85
2019-03-27 00:00:00 -- 40 Este 66 Este 0 -- -- 84
2019-03-26 23:00:00 -- 41 Este 71 Este 0 -- -- 87
2019-03-26 22:00:00 -- 43 Este 67 Este 0 -- -- 84
2019-03-26 21:00:00 -- 43 Este 67 Este 0 -- -- 84
2019-03-26 20:00:00 -- 45 Este 77 Este 0 -- -- 86
2019-03-26 19:00:00 -- 48 Este 75 Este 0 -- -- 82
2019-03-26 18:00:00 -- 45 Este 72 Este 0 -- -- 76
2019-03-26 17:00:00 -- 45 Este 68 Este 0 -- -- 76
2019-03-26 16:00:00 -- 42 Este 86 Este 0 -- -- 76
2019-03-26 15:00:00 -- 45 Este 81 Este 0 -- -- 76
2019-03-26 14:00:00 -- 44 Este 81 Este 0 -- -- 71
2019-03-26 13:00:00 -- 42 Este 76 Este 0 -- -- 71
2019-03-26 12:00:00 -- 43 Este 79 Este 0 -- -- 68
2019-03-26 11:00:00 -- 43 Este 77 Este 0 -- -- 66
2019-03-26 10:00:00 -- 48 Este 78 Este 0 -- -- 66
2019-03-26 09:00:00 -- 44 Este 67 Este 0 -- -- 69
2019-03-26 08:00:00 -- 40 Este 64 Este 0 -- -- 67
2019-03-26 07:00:00 -- 39 Este 65 Este 0 -- -- 75
2019-03-26 06:00:00 -- 38 Este 70 Este 0 -- -- 76
2019-03-26 05:00:00 -- 29 Este 42 Este 0 -- -- 84
2019-03-26 04:00:00 -- 24 Este 37 Este 0 -- -- 86
2019-03-26 03:00:00 -- 21 Este 36 Este 0 -- -- 83
2019-03-26 02:00:00 -- 27 Este 44 Este 0 -- -- 76
2019-03-26 01:00:00 -- 31 Este 52 Este 0 -- -- 76
2019-03-26 00:00:00 -- 31 Este 53 Este 0 -- -- 76
2019-03-25 23:00:00 -- 29 Este 54 Este 0 -- -- 79
2019-03-25 22:00:00 -- 29 Este 49 Este 0 -- -- 83
2019-03-25 21:00:00 -- 30 Este 53 Este 0 -- -- 81
2019-03-25 20:00:00 -- 28 Este 49 Este 0 -- -- 84
2019-03-25 19:00:00 -- 28 Este 52 Este 0 -- -- 84
2019-03-25 18:00:00 -- 29 Este 48 Este 0 -- -- 82
2019-03-25 17:00:00 -- 28 Este 51 Este 0 -- -- 83
2019-03-25 16:00:00 -- 30 Este 50 Este 0 -- -- 83
2019-03-25 15:00:00 -- 30 Este 53 Este 0 -- -- 84
2019-03-25 14:00:00 -- 32 Este 57 Este 0 -- -- 83
2019-03-25 13:00:00 -- 28 Este 49 Este 0 -- -- 84
2019-03-25 12:00:00 -- 27 Este 46 Este 0 -- -- 82
2019-03-25 11:00:00 -- 27 Este 42 Este 0 -- -- 82
2019-03-25 10:00:00 -- 26 Este 41 Este 0 -- -- 82
2019-03-25 09:00:00 -- 22 Este 41 Este 0 -- -- 83
2019-03-25 08:00:00 -- 23 Este 39 Nordeste 0 -- -- 86
2019-03-25 07:00:00 -- 21 Este 36 Sudeste 0 -- -- 86
2019-03-25 06:00:00 -- 19 Este 35 Este 0 -- -- 87
2019-03-25 05:00:00 -- 19 Este 40 Este 0 -- -- 86
2019-03-25 04:00:00 -- 19 Sudeste 37 Este 0 -- -- 84
2019-03-25 03:00:00 -- 17 Sudeste 39 Sudeste 0 -- -- 84
2019-03-25 02:00:00 -- 17 Sudeste 38 Sudeste 0 -- -- 84
2019-03-25 01:00:00 -- 24 Este 48 Sudeste 0 -- -- 84
2019-03-25 00:00:00 -- 22 Este 43 Este 0 -- -- 90
2019-03-24 23:00:00 -- 19 Este 33 Este 0 -- -- 90
2019-03-24 22:00:00 -- 20 Sudeste 33 Este 0 -- -- 90
2019-03-24 21:00:00 -- 18 Sudeste 30 Este 0 -- -- 91
2019-03-24 20:00:00 -- 17 Sudeste 27 Este 0 -- -- 92
2019-03-24 19:00:00 -- 19 Este 31 Este 0 -- -- 91
2019-03-24 18:00:00 -- 13 Sudeste 27 Este 0 -- -- 91
2019-03-24 17:00:00 -- 9 Este 25 Sudeste 0 -- -- 86
2019-03-24 16:00:00 -- 14 Sudeste 21 Sudeste 0 -- -- 88
2019-03-24 15:00:00 -- 6 Este 18 Sudeste 0 -- -- 88
2019-03-24 14:00:00 -- 3 Norte 7 Nordeste 0 -- -- 90
2019-03-24 13:00:00 -- 3 Norte 9 Nordeste 0 -- -- 89
2019-03-24 12:00:00 -- 4 Nordeste 11 Este 0 -- -- 90
2019-03-24 11:00:00 -- 6 Este 12 Nordeste 0 -- -- 90
2019-03-24 10:00:00 -- 4 Este 11 Sudeste 0 -- -- 91
2019-03-24 09:00:00 -- 7 Sudeste 16 Sudeste 0 -- -- 93
2019-03-24 08:00:00 -- 9 Sudeste 16 Este 0 -- -- 93
2019-03-24 07:00:00 -- 8 Este 13 Este 0 -- -- 93
2019-03-24 06:00:00 -- 5 Este 10 Este 0 -- -- 93
2019-03-24 05:00:00 -- 5 Este 8 Este 0 -- -- 93
2019-03-24 04:00:00 -- 6 Sudeste 15 Sudeste 0 -- -- 93
2019-03-24 03:00:00 -- 11 Sudeste 18 Sudeste 0 -- -- 94
2019-03-24 02:00:00 -- 12 Sudeste 24 Este 0 -- -- 93
2019-03-24 01:00:00 -- 15 Este 26 Este 0 -- -- 93
2019-03-24 00:00:00 -- 18 Este 26 Este 0 -- -- 93
2019-03-23 23:00:00 -- 18 Este 24 Este 0 -- -- 93
2019-03-23 22:00:00 -- 16 Este 28 Este 0 -- -- 92
2019-03-23 21:00:00 -- 21 Este 31 Este 0 -- -- 92
2019-03-23 20:00:00 -- 23 Este 32 Este 0 -- -- 91
2019-03-23 19:00:00 -- 23 Este 32 Este 0 -- -- 91
2019-03-23 18:00:00 -- 23 Este 32 Este 0 -- -- 86
2019-03-23 17:00:00 -- 23 Este 33 Este 0 -- -- 89
2019-03-23 16:00:00 -- 24 Este 35 Este 0 -- -- 90
2019-03-23 15:00:00 -- 22 Este 30 Este 0 -- -- 88
2019-03-23 14:00:00 -- 23 Este 28 Este 0 -- -- 88
2019-03-23 13:00:00 -- 19 Este 27 Este 0 -- -- 88
2019-03-23 12:00:00 -- 21 Este 28 Este 0 -- -- 88
2019-03-23 11:00:00 -- 16 Este 25 Sudeste 0 -- -- 87
2019-03-23 10:00:00 -- 16 Sudeste 22 Sudeste 0 -- -- 86
2019-03-23 09:00:00 -- 12 Sudeste 17 Sudeste 0 -- -- 83
2019-03-23 08:00:00 -- 6 Sudeste 9 Sudeste 0 -- -- 92
2019-03-23 07:00:00 -- 5 Sudeste 7 Sudeste 0 -- -- 93
2019-03-23 06:00:00 -- 0 Calma 6 Noroeste 0 -- -- 93
2019-03-23 05:00:00 -- 3 Nordeste 8 Sudeste 0 -- -- 93
2019-03-23 04:00:00 -- 7 Sudeste 10 Sudeste 0 -- -- 93
2019-03-23 03:00:00 -- 2 Este 8 Sudeste 0 -- -- 92
2019-03-23 02:00:00 -- 8 Sudeste 12 Sudeste 0 -- -- 91
2019-03-23 01:00:00 -- 4 Este 5 Sudoeste 0 -- -- 87
2019-03-23 00:00:00 -- 0 Calma 6 Sudeste 0 -- -- 84
2019-03-22 23:00:00 -- 5 Sudeste 9 Sudeste 0 -- -- 90
2019-03-22 22:00:00 -- 5 Sudeste 8 Sudeste 0 -- -- 88
2019-03-22 21:00:00 -- 8 Sudeste 10 Sudeste 0 -- -- 91
2019-03-22 20:00:00 -- 6 Sudeste 9 Sudeste 0 -- -- 90
2019-03-22 19:00:00 -- 7 Sudeste 12 Sudeste 0 -- -- 88
2019-03-22 18:00:00 -- 10 Sudeste 15 Este 0 -- -- 84
2019-03-22 17:00:00 -- 13 Sudeste 18 Sudeste 0 -- -- 82
2019-03-22 16:00:00 -- 11 Este 14 Este 0 -- -- 79
2019-03-22 15:00:00 -- 5 Este 11 Nordeste 0 -- -- 68
2019-03-22 14:00:00 -- 5 Este 9 Este 0 -- -- 72
2019-03-22 13:00:00 -- 4 Noroeste 10 Noroeste 0 -- -- 51
2019-03-22 12:00:00 -- 7 Sudoeste 11 Oeste 0 -- -- 59
2019-03-22 11:00:00 -- 3 Norte 10 Este 0 -- -- 81
2019-03-22 10:00:00 -- 5 Este 10 Este 0 -- -- 76
2019-03-22 09:00:00 -- 8 Este 16 Sudeste 0 -- -- 73
2019-03-22 08:00:00 -- 5 Sudeste 20 Sudeste 0 -- -- 82
2019-03-22 07:00:00 -- 15 Sudeste 21 Sudeste 0 -- -- 86
2019-03-22 06:00:00 -- 10 Sudeste 21 Sudeste 0 -- -- 88
2019-03-22 05:00:00 -- 16 Sudeste 24 Sudeste 0 -- -- 90
2019-03-22 04:00:00 -- 18 Sudeste 23 Sudeste 0 -- -- 91
2019-03-22 03:00:00 -- 16 Sudeste 22 Sudeste 0 -- -- 91
2019-03-22 02:00:00 -- 17 Sudeste 27 Sudeste 0 -- -- 91
2019-03-22 01:00:00 -- 18 Este 30 Sudeste 0 -- -- 91
2019-03-22 00:00:00 -- 23 Este 42 Este 0 -- -- 91
2019-03-21 23:00:00 -- 30 Este 45 Este 0 -- -- 89
2019-03-21 22:00:00 -- 32 Este 45 Este 0 -- -- 87
2019-03-21 21:00:00 -- 30 Este 45 Este 0 -- -- 86
2019-03-21 20:00:00 -- 29 Este 49 Este 0 -- -- 84
2019-03-21 19:00:00 -- 27 Este 45 Este 0 -- -- 83
2019-03-21 18:00:00 -- 23 Este 46 Este 0 -- -- 84
2019-03-21 17:00:00 -- 24 Este 42 Este 0 -- -- 81
2019-03-21 16:00:00 -- 24 Este 40 Este 0 -- -- 76
2019-03-21 15:00:00 -- 21 Este 40 Sudeste 0 -- -- 83
2019-03-21 14:00:00 -- 24 Sudeste 48 Este 0 -- -- 84
2019-03-21 13:00:00 -- 21 Este 39 Este 0 -- -- 81
2019-03-21 12:00:00 -- 17 Este 31 Este 0 -- -- 83
2019-03-21 11:00:00 -- 14 Este 22 Este 0 -- -- 79
2019-03-21 10:00:00 -- 14 Este 23 Sudeste 0 -- -- 76
2019-03-21 09:00:00 -- 17 Sudeste 24 Sudeste 0 -- -- 79
2019-03-21 08:00:00 -- 17 Sudeste 23 Sudeste 0 -- -- 83
2019-03-21 07:00:00 -- 17 Sudeste 26 Sudeste 0 -- -- 86
2019-03-21 06:00:00 -- 18 Sudeste 37 Este 0 -- -- 82
2019-03-21 05:00:00 -- 23 Este 38 Este 0 -- -- 82
2019-03-21 04:00:00 -- 23 Este 38 Este 0 -- -- 81
2019-03-21 03:00:00 -- 24 Este 41 Este 0 -- -- 84
2019-03-21 02:00:00 -- 28 Este 47 Este 0 -- -- 82
2019-03-21 01:00:00 -- 30 Este 51 Este 0 -- -- 81
2019-03-21 00:00:00 -- 32 Este 51 Este 0 -- -- 76